sensor_id;sensor_type;location;lat;lon;timestamp;pressure;altitude;pressure_sealevel;temperature
53412;BMP280;39307;52.870;13.660;2022-10-22T00:01:27;100507.56;;;13.66
53412;BMP280;39307;52.870;13.660;2022-10-22T00:03:54;100502.28;;;13.73
53412;BMP280;39307;52.870;13.660;2022-10-22T00:06:20;100497.03;;;13.73
53412;BMP280;39307;52.870;13.660;2022-10-22T00:08:46;100497.41;;;13.76
53412;BMP280;39307;52.870;13.660;2022-10-22T00:11:15;100490.75;;;13.80
53412;BMP280;39307;52.870;13.660;2022-10-22T00:13:42;100481.03;;;13.81
53412;BMP280;39307;52.870;13.660;2022-10-22T00:16:08;100486.47;;;13.79
53412;BMP280;39307;52.870;13.660;2022-10-22T00:18:35;100485.09;;;13.77
53412;BMP280;39307;52.870;13.660;2022-10-22T00:21:01;100486.47;;;13.79
53412;BMP280;39307;52.870;13.660;2022-10-22T00:23:28;100482.88;;;13.74
53412;BMP280;39307;52.870;13.660;2022-10-22T00:25:54;100481.25;;;13.73
53412;BMP280;39307;52.870;13.660;2022-10-22T00:28:20;100502.09;;;13.74
53412;BMP280;39307;52.870;13.660;2022-10-22T00:30:46;100503.31;;;13.72
53412;BMP280;39307;52.870;13.660;2022-10-22T00:33:13;100513.19;;;13.76
53412;BMP280;39307;52.870;13.660;2022-10-22T00:35:39;100518.47;;;13.76
53412;BMP280;39307;52.870;13.660;2022-10-22T00:38:05;100517.09;;;13.74
53412;BMP280;39307;52.870;13.660;2022-10-22T00:40:34;100514.84;;;13.77
53412;BMP280;39307;52.870;13.660;2022-10-22T00:43:00;100504.88;;;13.85
53412;BMP280;39307;52.870;13.660;2022-10-22T00:45:26;100497.44;;;13.83
53412;BMP280;39307;52.870;13.660;2022-10-22T00:48:03;100488.31;;;13.79
53412;BMP280;39307;52.870;13.660;2022-10-22T00:50:43;100499.63;;;13.79
53412;BMP280;39307;52.870;13.660;2022-10-22T00:53:18;100498.41;;;13.82
53412;BMP280;39307;52.870;13.660;2022-10-22T00:55:48;100486.72;;;13.78
53412;BMP280;39307;52.870;13.660;2022-10-22T00:58:18;100480.63;;;13.77
53412;BMP280;39307;52.870;13.660;2022-10-22T01:00:45;100477.78;;;13.79
53412;BMP280;39307;52.870;13.660;2022-10-22T01:03:11;100454.72;;;13.81
53412;BMP280;39307;52.870;13.660;2022-10-22T01:06:05;100454.50;;;13.82
53412;BMP280;39307;52.870;13.660;2022-10-22T01:08:54;100459.19;;;13.80
53412;BMP280;39307;52.870;13.660;2022-10-22T01:14:10;100466.06;;;13.75
53412;BMP280;39307;52.870;13.660;2022-10-22T01:22:51;100479.63;;;13.72
53412;BMP280;39307;52.870;13.660;2022-10-22T01:25:34;100475.00;;;13.74
53412;BMP280;39307;52.870;13.660;2022-10-22T01:30:44;100481.63;;;13.76
53412;BMP280;39307;52.870;13.660;2022-10-22T01:33:13;100479.00;;;13.76
53412;BMP280;39307;52.870;13.660;2022-10-22T01:35:42;100486.72;;;13.71
53412;BMP280;39307;52.870;13.660;2022-10-22T01:38:17;100485.09;;;13.70
53412;BMP280;39307;52.870;13.660;2022-10-22T01:40:46;100502.13;;;13.68
53412;BMP280;39307;52.870;13.660;2022-10-22T01:43:13;100494.22;;;13.68
53412;BMP280;39307;52.870;13.660;2022-10-22T01:45:43;100489.16;;;13.66
53412;BMP280;39307;52.870;13.660;2022-10-22T01:51:20;100480.25;;;13.74
53412;BMP280;39307;52.870;13.660;2022-10-22T01:53:57;100485.31;;;13.69
53412;BMP280;39307;52.870;13.660;2022-10-22T01:56:57;100479.84;;;13.64
53412;BMP280;39307;52.870;13.660;2022-10-22T01:59:41;100482.91;;;13.61
53412;BMP280;39307;52.870;13.660;2022-10-22T02:02:12;100487.38;;;13.60
53412;BMP280;39307;52.870;13.660;2022-10-22T02:04:54;100494.03;;;13.63
53412;BMP280;39307;52.870;13.660;2022-10-22T02:07:28;100494.69;;;13.58
53412;BMP280;39307;52.870;13.660;2022-10-22T02:09:57;100492.22;;;13.57
53412;BMP280;39307;52.870;13.660;2022-10-22T02:12:26;100493.22;;;13.62
53412;BMP280;39307;52.870;13.660;2022-10-22T02:14:54;100488.38;;;13.66
53412;BMP280;39307;52.870;13.660;2022-10-22T02:17:21;100477.56;;;13.86
53412;BMP280;39307;52.870;13.660;2022-10-22T02:19:56;100475.78;;;13.74
53412;BMP280;39307;52.870;13.660;2022-10-22T02:22:25;100477.44;;;13.62
53412;BMP280;39307;52.870;13.660;2022-10-22T02:24:52;100480.53;;;13.53
53412;BMP280;39307;52.870;13.660;2022-10-22T02:27:26;100484.78;;;13.48
53412;BMP280;39307;52.870;13.660;2022-10-22T02:30:09;100488.03;;;13.43
53412;BMP280;39307;52.870;13.660;2022-10-22T02:32:43;100495.53;;;13.46
53412;BMP280;39307;52.870;13.660;2022-10-22T02:35:15;100502.78;;;13.44
53412;BMP280;39307;52.870;13.660;2022-10-22T02:37:44;100501.59;;;13.47
53412;BMP280;39307;52.870;13.660;2022-10-22T02:40:10;100499.75;;;13.47
53412;BMP280;39307;52.870;13.660;2022-10-22T02:42:38;100502.56;;;13.52
53412;BMP280;39307;52.870;13.660;2022-10-22T02:45:05;100493.84;;;13.52
53412;BMP280;39307;52.870;13.660;2022-10-22T02:47:32;100484.97;;;13.53
53412;BMP280;39307;52.870;13.660;2022-10-22T02:49:58;100489.41;;;13.52
53412;BMP280;39307;52.870;13.660;2022-10-22T02:52:24;100491.44;;;13.50
53412;BMP280;39307;52.870;13.660;2022-10-22T02:54:50;100488.41;;;13.53
53412;BMP280;39307;52.870;13.660;2022-10-22T02:57:17;100491.22;;;13.52
53412;BMP280;39307;52.870;13.660;2022-10-22T02:59:43;100500.34;;;13.49
53412;BMP280;39307;52.870;13.660;2022-10-22T03:02:09;100498.94;;;13.47
53412;BMP280;39307;52.870;13.660;2022-10-22T03:04:35;100495.28;;;13.54
53412;BMP280;39307;52.870;13.660;2022-10-22T03:07:01;100496.88;;;13.55
53412;BMP280;39307;52.870;13.660;2022-10-22T03:09:28;100498.31;;;13.57
53412;BMP280;39307;52.870;13.660;2022-10-22T03:11:54;100499.72;;;13.60
53412;BMP280;39307;52.870;13.660;2022-10-22T03:14:20;100499.31;;;13.63
53412;BMP280;39307;52.870;13.660;2022-10-22T03:16:46;100495.06;;;13.62
53412;BMP280;39307;52.870;13.660;2022-10-22T03:19:12;100488.97;;;13.68
53412;BMP280;39307;52.870;13.660;2022-10-22T03:21:50;100498.69;;;13.61
53412;BMP280;39307;52.870;13.660;2022-10-22T03:24:22;100491.22;;;13.58
53412;BMP280;39307;52.870;13.660;2022-10-22T03:26:50;100492.88;;;13.53
53412;BMP280;39307;52.870;13.660;2022-10-22T03:29:16;100494.88;;;13.57
53412;BMP280;39307;52.870;13.660;2022-10-22T03:31:43;100501.97;;;13.50
53412;BMP280;39307;52.870;13.660;2022-10-22T03:34:09;100497.13;;;13.47
53412;BMP280;39307;52.870;13.660;2022-10-22T03:36:35;100495.53;;;13.46
53412;BMP280;39307;52.870;13.660;2022-10-22T03:39:01;100493.31;;;13.43
53412;BMP280;39307;52.870;13.660;2022-10-22T03:41:29;100501.78;;;13.45
53412;BMP280;39307;52.870;13.660;2022-10-22T03:43:56;100499.38;;;13.44
53412;BMP280;39307;52.870;13.660;2022-10-22T03:46:22;100497.53;;;13.44
53412;BMP280;39307;52.870;13.660;2022-10-22T03:48:49;100496.72;;;13.44
53412;BMP280;39307;52.870;13.660;2022-10-22T03:51:15;100497.94;;;13.41
53412;BMP280;39307;52.870;13.660;2022-10-22T03:53:41;100498.72;;;13.48
53412;BMP280;39307;52.870;13.660;2022-10-22T03:56:08;100506.41;;;13.56
53412;BMP280;39307;52.870;13.660;2022-10-22T03:58:36;100499.72;;;13.60
53412;BMP280;39307;52.870;13.660;2022-10-22T04:01:11;100502.97;;;13.62
53412;BMP280;39307;52.870;13.660;2022-10-22T04:03:38;100501.16;;;13.56
53412;BMP280;39307;52.870;13.660;2022-10-22T04:06:08;100503.59;;;13.51
53412;BMP280;39307;52.870;13.660;2022-10-22T04:08:38;100509.25;;;13.48
53412;BMP280;39307;52.870;13.660;2022-10-22T04:11:04;100502.97;;;13.49
53412;BMP280;39307;52.870;13.660;2022-10-22T04:13:31;100511.28;;;13.46
53412;BMP280;39307;52.870;13.660;2022-10-22T04:16:21;100507.44;;;13.42
53412;BMP280;39307;52.870;13.660;2022-10-22T04:18:48;100522.22;;;13.43
53412;BMP280;39307;52.870;13.660;2022-10-22T04:21:17;100525.25;;;13.47
53412;BMP280;39307;52.870;13.660;2022-10-22T04:23:45;100535.97;;;13.45
53412;BMP280;39307;52.870;13.660;2022-10-22T04:26:12;100533.72;;;13.42
53412;BMP280;39307;52.870;13.660;2022-10-22T04:28:38;100541.84;;;13.41
53412;BMP280;39307;52.870;13.660;2022-10-22T04:31:16;100537.00;;;13.38
53412;BMP280;39307;52.870;13.660;2022-10-22T04:33:45;100538.38;;;13.34
53412;BMP280;39307;52.870;13.660;2022-10-22T04:36:16;100544.91;;;13.31
53412;BMP280;39307;52.870;13.660;2022-10-22T04:38:44;100529.69;;;13.33
53412;BMP280;39307;52.870;13.660;2022-10-22T04:41:15;100525.84;;;13.42
53412;BMP280;39307;52.870;13.660;2022-10-22T04:43:42;100533.97;;;13.41
53412;BMP280;39307;52.870;13.660;2022-10-22T04:46:10;100536.38;;;13.36
53412;BMP280;39307;52.870;13.660;2022-10-22T04:48:38;100536.59;;;13.34
53412;BMP280;39307;52.870;13.660;2022-10-22T04:51:06;100533.16;;;13.27
53412;BMP280;39307;52.870;13.660;2022-10-22T04:53:33;100535.78;;;13.27
53412;BMP280;39307;52.870;13.660;2022-10-22T04:56:11;100535.38;;;13.24
53412;BMP280;39307;52.870;13.660;2022-10-22T04:58:38;100532.75;;;13.24
53412;BMP280;39307;52.870;13.660;2022-10-22T05:01:19;100529.94;;;13.26
53412;BMP280;39307;52.870;13.660;2022-10-22T05:03:46;100533.75;;;13.29
53412;BMP280;39307;52.870;13.660;2022-10-22T05:06:12;100540.03;;;13.28
53412;BMP280;39307;52.870;13.660;2022-10-22T05:08:39;100535.19;;;13.26
53412;BMP280;39307;52.870;13.660;2022-10-22T05:11:17;100527.31;;;13.26
53412;BMP280;39307;52.870;13.660;2022-10-22T05:13:44;100532.56;;;13.26
53412;BMP280;39307;52.870;13.660;2022-10-22T05:16:11;100534.97;;;13.33
53412;BMP280;39307;52.870;13.660;2022-10-22T05:18:39;100533.53;;;13.31
53412;BMP280;39307;52.870;13.660;2022-10-22T05:21:16;100538.00;;;13.30
53412;BMP280;39307;52.870;13.660;2022-10-22T05:23:44;100539.81;;;13.30
53412;BMP280;39307;52.870;13.660;2022-10-22T05:26:12;100538.63;;;13.26
53412;BMP280;39307;52.870;13.660;2022-10-22T05:28:38;100543.25;;;13.24
53412;BMP280;39307;52.870;13.660;2022-10-22T05:31:06;100539.66;;;13.25
53412;BMP280;39307;52.870;13.660;2022-10-22T05:33:33;100541.44;;;13.25
53412;BMP280;39307;52.870;13.660;2022-10-22T05:36:00;100539.84;;;13.24
53412;BMP280;39307;52.870;13.660;2022-10-22T05:38:27;100543.88;;;13.20
53412;BMP280;39307;52.870;13.660;2022-10-22T05:41:05;100542.47;;;13.24
53412;BMP280;39307;52.870;13.660;2022-10-22T05:43:32;100544.28;;;13.23
53412;BMP280;39307;52.870;13.660;2022-10-22T05:46:06;100540.44;;;13.26
53412;BMP280;39307;52.870;13.660;2022-10-22T05:48:33;100542.84;;;13.33
53412;BMP280;39307;52.870;13.660;2022-10-22T05:51:08;100537.00;;;13.31
53412;BMP280;39307;52.870;13.660;2022-10-22T05:53:37;100545.72;;;13.26
53412;BMP280;39307;52.870;13.660;2022-10-22T05:56:05;100542.88;;;13.21
53412;BMP280;39307;52.870;13.660;2022-10-22T05:58:32;100548.53;;;13.18
53412;BMP280;39307;52.870;13.660;2022-10-22T06:01:04;100544.69;;;13.14
53412;BMP280;39307;52.870;13.660;2022-10-22T06:03:31;100545.50;;;13.14
53412;BMP280;39307;52.870;13.660;2022-10-22T06:06:02;100546.94;;;13.17
53412;BMP280;39307;52.870;13.660;2022-10-22T06:08:29;100546.72;;;13.12
53412;BMP280;39307;52.870;13.660;2022-10-22T06:10:55;100545.69;;;13.06
53412;BMP280;39307;52.870;13.660;2022-10-22T06:13:21;100548.31;;;13.06
53412;BMP280;39307;52.870;13.660;2022-10-22T06:15:49;100551.56;;;13.08
53412;BMP280;39307;52.870;13.660;2022-10-22T06:18:15;100551.78;;;13.07
53412;BMP280;39307;52.870;13.660;2022-10-22T06:20:41;100556.44;;;13.05
53412;BMP280;39307;52.870;13.660;2022-10-22T06:23:07;100562.09;;;13.08
53412;BMP280;39307;52.870;13.660;2022-10-22T06:25:34;100570.97;;;13.14
53412;BMP280;39307;52.870;13.660;2022-10-22T06:28:00;100561.28;;;13.14
53412;BMP280;39307;52.870;13.660;2022-10-22T06:30:26;100570.19;;;13.13
53412;BMP280;39307;52.870;13.660;2022-10-22T06:32:52;100575.63;;;13.12
53412;BMP280;39307;52.870;13.660;2022-10-22T06:35:18;100577.84;;;13.15
53412;BMP280;39307;52.870;13.660;2022-10-22T06:37:45;100592.59;;;13.16
53412;BMP280;39307;52.870;13.660;2022-10-22T06:40:11;100579.84;;;13.13
53412;BMP280;39307;52.870;13.660;2022-10-22T06:42:38;100581.69;;;13.12
53412;BMP280;39307;52.870;13.660;2022-10-22T06:45:04;100576.81;;;13.16
53412;BMP280;39307;52.870;13.660;2022-10-22T06:47:30;100586.75;;;13.20
53412;BMP280;39307;52.870;13.660;2022-10-22T06:49:57;100594.41;;;13.22
53412;BMP280;39307;52.870;13.660;2022-10-22T06:52:23;100593.81;;;13.26
53412;BMP280;39307;52.870;13.660;2022-10-22T06:54:49;100595.25;;;13.28
53412;BMP280;39307;52.870;13.660;2022-10-22T06:57:15;100596.84;;;13.29
53412;BMP280;39307;52.870;13.660;2022-10-22T06:59:42;100598.47;;;13.30
53412;BMP280;39307;52.870;13.660;2022-10-22T07:02:09;100603.72;;;13.37
53412;BMP280;39307;52.870;13.660;2022-10-22T07:04:35;100603.53;;;13.38
53412;BMP280;39307;52.870;13.660;2022-10-22T07:07:01;100600.69;;;13.40
53412;BMP280;39307;52.870;13.660;2022-10-22T07:09:27;100608.97;;;13.37
53412;BMP280;39307;52.870;13.660;2022-10-22T07:11:53;100607.75;;;13.39
53412;BMP280;39307;52.870;13.660;2022-10-22T07:14:20;100611.63;;;13.43
53412;BMP280;39307;52.870;13.660;2022-10-22T07:16:46;100609.97;;;13.49
53412;BMP280;39307;52.870;13.660;2022-10-22T07:19:12;100609.00;;;13.50
53412;BMP280;39307;52.870;13.660;2022-10-22T07:21:39;100615.06;;;13.50
53412;BMP280;39307;52.870;13.660;2022-10-22T07:24:05;100612.19;;;13.52
53412;BMP280;39307;52.870;13.660;2022-10-22T07:26:32;100619.91;;;13.59
53412;BMP280;39307;52.870;13.660;2022-10-22T07:28:59;100621.50;;;13.67
53412;BMP280;39307;52.870;13.660;2022-10-22T07:31:26;100624.13;;;13.67
53412;BMP280;39307;52.870;13.660;2022-10-22T07:33:52;100618.88;;;13.67
53412;BMP280;39307;52.870;13.660;2022-10-22T07:36:18;100618.84;;;13.73
53412;BMP280;39307;52.870;13.660;2022-10-22T07:38:46;100626.34;;;13.83
53412;BMP280;39307;52.870;13.660;2022-10-22T07:41:14;100634.03;;;13.84
53412;BMP280;39307;52.870;13.660;2022-10-22T07:43:40;100634.03;;;13.84
53412;BMP280;39307;52.870;13.660;2022-10-22T07:46:07;100638.88;;;13.87
53412;BMP280;39307;52.870;13.660;2022-10-22T07:48:37;100632.59;;;13.88
53412;BMP280;39307;52.870;13.660;2022-10-22T07:51:03;100636.03;;;13.95
53412;BMP280;39307;52.870;13.660;2022-10-22T07:53:30;100635.03;;;13.96
53412;BMP280;39307;52.870;13.660;2022-10-22T07:55:56;100629.78;;;13.96
53412;BMP280;39307;52.870;13.660;2022-10-22T07:58:23;100633.00;;;14.04
53412;BMP280;39307;52.870;13.660;2022-10-22T08:00:50;100639.66;;;14.07
53412;BMP280;39307;52.870;13.660;2022-10-22T08:03:17;100646.94;;;14.11
53412;BMP280;39307;52.870;13.660;2022-10-22T08:05:44;100642.50;;;14.12
53412;BMP280;39307;52.870;13.660;2022-10-22T08:08:11;100653.81;;;14.18
53412;BMP280;39307;52.870;13.660;2022-10-22T08:10:38;100659.06;;;14.18
53412;BMP280;39307;52.870;13.660;2022-10-22T08:13:05;100662.91;;;14.22
53412;BMP280;39307;52.870;13.660;2022-10-22T08:15:31;100662.69;;;14.24
53412;BMP280;39307;52.870;13.660;2022-10-22T08:17:57;100668.16;;;14.29
53412;BMP280;39307;52.870;13.660;2022-10-22T08:20:24;100673.63;;;14.27
53412;BMP280;39307;52.870;13.660;2022-10-22T08:22:50;100670.56;;;14.30
53412;BMP280;39307;52.870;13.660;2022-10-22T08:25:16;100672.38;;;14.36
53412;BMP280;39307;52.870;13.660;2022-10-22T08:27:43;100671.34;;;14.43
53412;BMP280;39307;52.870;13.660;2022-10-22T08:30:10;100668.72;;;14.43
53412;BMP280;39307;52.870;13.660;2022-10-22T08:32:36;100667.28;;;14.47
53412;BMP280;39307;52.870;13.660;2022-10-22T08:35:03;100669.50;;;14.50
53412;BMP280;39307;52.870;13.660;2022-10-22T08:37:29;100669.69;;;14.55
53412;BMP280;39307;52.870;13.660;2022-10-22T08:39:55;100673.09;;;14.62
53412;BMP280;39307;52.870;13.660;2022-10-22T08:48:16;100683.56;;;14.75
53412;BMP280;39307;52.870;13.660;2022-10-22T08:50:46;100683.97;;;14.78
53412;BMP280;39307;52.870;13.660;2022-10-22T08:53:18;100675.03;;;14.79
53412;BMP280;39307;52.870;13.660;2022-10-22T08:55:47;100685.56;;;14.86
53412;BMP280;39307;52.870;13.660;2022-10-22T08:58:46;100684.91;;;14.90
53412;BMP280;39307;52.870;13.660;2022-10-22T09:01:40;100681.25;;;14.91
53412;BMP280;39307;52.870;13.660;2022-10-22T09:04:38;100683.06;;;14.91
53412;BMP280;39307;52.870;13.660;2022-10-22T09:07:08;100682.88;;;14.92
53412;BMP280;39307;52.870;13.660;2022-10-22T09:09:41;100681.25;;;14.91
53412;BMP280;39307;52.870;13.660;2022-10-22T09:12:14;100686.31;;;14.93
53412;BMP280;39307;52.870;13.660;2022-10-22T09:14:41;100685.44;;;15.05
53412;BMP280;39307;52.870;13.660;2022-10-22T09:17:43;100689.66;;;15.12
53412;BMP280;39307;52.870;13.660;2022-10-22T09:20:28;100684.97;;;15.21
53412;BMP280;39307;52.870;13.660;2022-10-22T09:23:30;100688.78;;;15.25
53412;BMP280;39307;52.870;13.660;2022-10-22T09:25:58;100696.69;;;15.25
53412;BMP280;39307;52.870;13.660;2022-10-22T09:28:25;100691.41;;;15.25
53412;BMP280;39307;52.870;13.660;2022-10-22T09:30:51;100689.16;;;15.28
53412;BMP280;39307;52.870;13.660;2022-10-22T09:33:26;100696.44;;;15.32
53412;BMP280;39307;52.870;13.660;2022-10-22T09:35:58;100704.56;;;15.31
53412;BMP280;39307;52.870;13.660;2022-10-22T09:38:27;100699.47;;;15.36
53412;BMP280;39307;52.870;13.660;2022-10-22T09:40:55;100718.56;;;15.31
53412;BMP280;39307;52.870;13.660;2022-10-22T09:43:22;100707.59;;;15.34
53412;BMP280;39307;52.870;13.660;2022-10-22T09:45:59;100712.03;;;15.40
53412;BMP280;39307;52.870;13.660;2022-10-22T09:51:25;100714.19;;;15.50
53412;BMP280;39307;52.870;13.660;2022-10-22T09:54:11;100710.69;;;15.56
53412;BMP280;39307;52.870;13.660;2022-10-22T09:56:39;100709.28;;;15.53
53412;BMP280;39307;52.870;13.660;2022-10-22T09:59:08;100712.91;;;15.59
53412;BMP280;39307;52.870;13.660;2022-10-22T10:01:39;100719.94;;;15.64
53412;BMP280;39307;52.870;13.660;2022-10-22T10:04:09;100719.13;;;15.64
53412;BMP280;39307;52.870;13.660;2022-10-22T10:06:36;100720.97;;;15.63
53412;BMP280;39307;52.870;13.660;2022-10-22T10:09:21;100718.94;;;15.65
53412;BMP280;39307;52.870;13.660;2022-10-22T10:14:57;100722.97;;;15.68
53412;BMP280;39307;52.870;13.660;2022-10-22T10:28:24;100729.88;;;15.93
53412;BMP280;39307;52.870;13.660;2022-10-22T10:33:50;100716.22;;;15.96
53412;BMP280;39307;52.870;13.660;2022-10-22T10:47:49;100729.00;;;15.99
53412;BMP280;39307;52.870;13.660;2022-10-22T10:53:16;100727.00;;;15.94
53412;BMP280;39307;52.870;13.660;2022-10-22T10:56:01;100730.84;;;15.98
53412;BMP280;39307;52.870;13.660;2022-10-22T11:01:26;100730.06;;;16.16
53412;BMP280;39307;52.870;13.660;2022-10-22T11:04:01;100734.84;;;16.25
53412;BMP280;39307;52.870;13.660;2022-10-22T11:06:33;100731.34;;;16.31
53412;BMP280;39307;52.870;13.660;2022-10-22T11:12:20;100736.69;;;16.24
53412;BMP280;39307;52.870;13.660;2022-10-22T11:15:07;100733.34;;;16.35
53412;BMP280;39307;52.870;13.660;2022-10-22T11:17:41;100735.84;;;16.48
53412;BMP280;39307;52.870;13.660;2022-10-22T11:20:24;100732.81;;;16.45
53412;BMP280;39307;52.870;13.660;2022-10-22T11:23:05;100730.03;;;16.40
53412;BMP280;39307;52.870;13.660;2022-10-22T11:25:42;100731.44;;;16.42
53412;BMP280;39307;52.870;13.660;2022-10-22T11:28:44;100724.81;;;16.51
53412;BMP280;39307;52.870;13.660;2022-10-22T11:31:09;100724.97;;;16.56
53412;BMP280;39307;52.870;13.660;2022-10-22T11:34:11;100726.00;;;16.55
53412;BMP280;39307;52.870;13.660;2022-10-22T11:36:39;100724.16;;;16.55
53412;BMP280;39307;52.870;13.660;2022-10-22T11:39:06;100730.22;;;16.74
53412;BMP280;39307;52.870;13.660;2022-10-22T11:41:33;100727.38;;;16.75
53412;BMP280;39307;52.870;13.660;2022-10-22T11:44:09;100734.50;;;16.75
53412;BMP280;39307;52.870;13.660;2022-10-22T11:47:07;100735.69;;;16.78
53412;BMP280;39307;52.870;13.660;2022-10-22T11:49:54;100738.03;;;16.86
53412;BMP280;39307;52.870;13.660;2022-10-22T11:52:26;100728.97;;;16.94
53412;BMP280;39307;52.870;13.660;2022-10-22T11:55:33;100728.59;;;17.08
53412;BMP280;39307;52.870;13.660;2022-10-22T12:00:56;100730.97;;;16.98
53412;BMP280;39307;52.870;13.660;2022-10-22T12:08:33;100728.53;;;17.14
53412;BMP280;39307;52.870;13.660;2022-10-22T12:16:26;100730.66;;;17.35
53412;BMP280;39307;52.870;13.660;2022-10-22T12:19:03;100721.72;;;17.47
53412;BMP280;39307;52.870;13.660;2022-10-22T12:21:33;100718.53;;;17.57
53412;BMP280;39307;52.870;13.660;2022-10-22T12:23:59;100715.53;;;17.64
53412;BMP280;39307;52.870;13.660;2022-10-22T12:26:29;100728.69;;;17.71
53412;BMP280;39307;52.870;13.660;2022-10-22T12:28:57;100719.94;;;17.82
53412;BMP280;39307;52.870;13.660;2022-10-22T12:31:24;100717.41;;;17.87
53412;BMP280;39307;52.870;13.660;2022-10-22T12:33:57;100716.50;;;17.92
53412;BMP280;39307;52.870;13.660;2022-10-22T12:36:32;100729.75;;;17.92
53412;BMP280;39307;52.870;13.660;2022-10-22T12:39:08;100725.34;;;17.98
53412;BMP280;39307;52.870;13.660;2022-10-22T12:41:37;100727.13;;;18.04
53412;BMP280;39307;52.870;13.660;2022-10-22T12:44:04;100720.56;;;18.06
53412;BMP280;39307;52.870;13.660;2022-10-22T12:46:32;100742.63;;;18.00
53412;BMP280;39307;52.870;13.660;2022-10-22T12:49:01;100729.53;;;18.05
53412;BMP280;39307;52.870;13.660;2022-10-22T12:51:28;100726.66;;;18.07
53412;BMP280;39307;52.870;13.660;2022-10-22T12:53:57;100730.59;;;18.04
53412;BMP280;39307;52.870;13.660;2022-10-22T12:56:27;100728.63;;;18.11
53412;BMP280;39307;52.870;13.660;2022-10-22T12:58:55;100737.50;;;18.17
53412;BMP280;39307;52.870;13.660;2022-10-22T13:01:26;100742.09;;;18.10
53412;BMP280;39307;52.870;13.660;2022-10-22T13:06:51;100743.19;;;17.91
53412;BMP280;39307;52.870;13.660;2022-10-22T13:09:38;100742.75;;;17.94
53412;BMP280;39307;52.870;13.660;2022-10-22T13:12:05;100745.84;;;17.91
53412;BMP280;39307;52.870;13.660;2022-10-22T13:14:37;100738.16;;;17.90
53412;BMP280;39307;52.870;13.660;2022-10-22T13:17:13;100733.19;;;17.82
53412;BMP280;39307;52.870;13.660;2022-10-22T13:22:38;100732.72;;;17.85
53412;BMP280;39307;52.870;13.660;2022-10-22T13:25:23;100735.25;;;17.91
53412;BMP280;39307;52.870;13.660;2022-10-22T13:30:59;100741.50;;;18.19
53412;BMP280;39307;52.870;13.660;2022-10-22T13:33:34;100740.94;;;18.06
53412;BMP280;39307;52.870;13.660;2022-10-22T13:36:03;100739.22;;;18.11
53412;BMP280;39307;52.870;13.660;2022-10-22T13:38:30;100742.66;;;18.12
53412;BMP280;39307;52.870;13.660;2022-10-22T13:40:56;100741.41;;;18.03
53412;BMP280;39307;52.870;13.660;2022-10-22T13:43:23;100741.88;;;18.11
53412;BMP280;39307;52.870;13.660;2022-10-22T13:45:59;100737.03;;;18.08
53412;BMP280;39307;52.870;13.660;2022-10-22T13:48:27;100742.34;;;18.08
53412;BMP280;39307;52.870;13.660;2022-10-22T13:50:54;100735.66;;;18.17
53412;BMP280;39307;52.870;13.660;2022-10-22T13:53:23;100737.63;;;18.10
53412;BMP280;39307;52.870;13.660;2022-10-22T13:55:50;100745.53;;;17.99
53412;BMP280;39307;52.870;13.660;2022-10-22T13:58:19;100743.19;;;17.91
53412;BMP280;39307;52.870;13.660;2022-10-22T14:00:48;100746.44;;;17.93
53412;BMP280;39307;52.870;13.660;2022-10-22T14:03:17;100743.66;;;17.88
53412;BMP280;39307;52.870;13.660;2022-10-22T14:05:45;100742.50;;;17.84
53412;BMP280;39307;52.870;13.660;2022-10-22T14:08:14;100736.63;;;17.82
53412;BMP280;39307;52.870;13.660;2022-10-22T14:10:42;100747.47;;;17.81
53412;BMP280;39307;52.870;13.660;2022-10-22T14:13:10;100749.16;;;17.75
53412;BMP280;39307;52.870;13.660;2022-10-22T14:15:37;100761.81;;;17.62
53412;BMP280;39307;52.870;13.660;2022-10-22T14:18:05;100749.28;;;17.69
53412;BMP280;39307;52.870;13.660;2022-10-22T14:20:34;100759.97;;;17.63
53412;BMP280;39307;52.870;13.660;2022-10-22T14:23:20;100767.06;;;17.51
53412;BMP280;39307;52.870;13.660;2022-10-22T14:25:46;100765.56;;;17.43
53412;BMP280;39307;52.870;13.660;2022-10-22T14:28:13;100768.06;;;17.38
53412;BMP280;39307;52.870;13.660;2022-10-22T14:30:40;100774.75;;;17.41
53412;BMP280;39307;52.870;13.660;2022-10-22T14:33:18;100770.47;;;17.40
53412;BMP280;39307;52.870;13.660;2022-10-22T14:35:46;100767.03;;;17.39
53412;BMP280;39307;52.870;13.660;2022-10-22T14:38:13;100764.63;;;17.38
53412;BMP280;39307;52.870;13.660;2022-10-22T14:40:40;100780.50;;;17.38
53412;BMP280;39307;52.870;13.660;2022-10-22T14:43:13;100777.13;;;17.31
53412;BMP280;39307;52.870;13.660;2022-10-22T14:45:41;100776.31;;;17.31
53412;BMP280;39307;52.870;13.660;2022-10-22T14:48:07;100772.66;;;17.32
53412;BMP280;39307;52.870;13.660;2022-10-22T14:50:33;100774.44;;;17.20
53412;BMP280;39307;52.870;13.660;2022-10-22T14:53:00;100782.81;;;17.17
53412;BMP280;39307;52.870;13.660;2022-10-22T14:55:26;100782.94;;;17.22
53412;BMP280;39307;52.870;13.660;2022-10-22T14:57:53;100776.13;;;17.14
53412;BMP280;39307;52.870;13.660;2022-10-22T15:00:19;100792.66;;;17.10
53412;BMP280;39307;52.870;13.660;2022-10-22T15:02:46;100789.22;;;17.09
53412;BMP280;39307;52.870;13.660;2022-10-22T15:05:13;100793.38;;;16.99
53412;BMP280;39307;52.870;13.660;2022-10-22T15:07:40;100788.31;;;16.98
53412;BMP280;39307;52.870;13.660;2022-10-22T15:10:07;100789.66;;;16.89
53412;BMP280;39307;52.870;13.660;2022-10-22T15:12:34;100794.78;;;16.84
53412;BMP280;39307;52.870;13.660;2022-10-22T15:15:00;100793.84;;;16.78
53412;BMP280;39307;52.870;13.660;2022-10-22T15:17:26;100786.34;;;16.75
53412;BMP280;39307;52.870;13.660;2022-10-22T15:19:52;100792.31;;;16.71
53412;BMP280;39307;52.870;13.660;2022-10-22T15:22:19;100798.25;;;16.67
53412;BMP280;39307;52.870;13.660;2022-10-22T15:24:45;100792.44;;;16.58